createdAt,value
2022-08-06T00:01:02.331Z,543.00
2022-08-06T00:06:01.496Z,559.40
2022-08-06T00:11:00.889Z,542.20
2022-08-06T00:16:09.730Z,539.60
2022-08-06T00:20:59.139Z,563.10
2022-08-06T00:26:00.432Z,517.00
2022-08-06T00:30:58.309Z,523.10
2022-08-06T00:35:56.919Z,505.60
2022-08-06T00:40:58.897Z,517.80
2022-08-06T00:45:55.613Z,432.70
2022-08-06T00:50:55.609Z,485.20
2022-08-06T00:56:01.524Z,503.20
2022-08-06T01:00:53.939Z,571.70
2022-08-06T01:06:53.951Z,538.00
2022-08-06T01:10:53.463Z,527.00
2022-08-06T01:16:09.009Z,550.40
2022-08-06T01:21:58.299Z,562.10
2022-08-06T01:25:50.012Z,487.70
2022-08-06T01:30:48.372Z,532.60
2022-08-06T01:35:54.894Z,480.10
2022-08-06T01:40:46.786Z,493.30
2022-08-06T01:45:55.404Z,506.20
2022-08-06T01:50:45.110Z,472.00
2022-08-06T01:55:58.928Z,509.40
2022-08-06T02:00:46.486Z,489.30
2022-08-06T02:05:44.778Z,505.80
2022-08-06T02:10:42.995Z,508.80
2022-08-06T02:15:58.927Z,499.10
2022-08-06T02:20:42.256Z,497.40
2022-08-06T02:25:39.708Z,570.60
2022-08-06T02:30:42.626Z,527.10
2022-08-06T02:35:40.081Z,582.80
2022-08-06T02:40:39.899Z,532.50
2022-08-06T02:45:38.316Z,543.40
2022-08-06T02:50:36.903Z,525.80
2022-08-06T02:55:35.171Z,562.40
2022-08-06T03:00:34.330Z,528.00
2022-08-06T03:05:54.781Z,545.90
2022-08-06T03:10:32.789Z,550.50
2022-08-06T03:15:57.463Z,519.60
2022-08-06T03:20:32.236Z,540.40
2022-08-06T03:25:32.514Z,530.50
2022-08-06T03:30:33.737Z,509.80
2022-08-06T03:35:41.809Z,464.80
2022-08-06T03:40:28.318Z,500.00
2022-08-06T03:45:45.362Z,528.50
2022-08-06T03:50:27.858Z,530.60
2022-08-06T03:55:28.880Z,532.50
2022-08-06T04:00:28.441Z,530.40
2022-08-06T04:05:24.272Z,521.00
2022-08-06T04:10:34.372Z,482.70
2022-08-06T04:15:22.796Z,521.70
2022-08-06T04:20:41.257Z,499.30
2022-08-06T04:25:21.194Z,516.30
2022-08-06T04:30:20.465Z,518.70
2022-08-06T04:36:06.878Z,504.30
2022-08-06T04:40:27.370Z,524.30
2022-08-06T04:46:16.174Z,492.60
2022-08-06T04:50:17.954Z,514.50
2022-08-06T04:55:23.852Z,520.30
2022-08-06T05:00:16.525Z,518.40
2022-08-06T05:05:16.685Z,496.50
2022-08-06T05:10:13.971Z,543.50
2022-08-06T05:15:15.921Z,504.00
2022-08-06T05:20:26.352Z,490.60
2022-08-06T05:25:21.955Z,522.30
2022-08-06T05:30:11.750Z,548.40
2022-08-06T05:35:10.051Z,521.90
2022-08-06T05:40:09.760Z,532.40
2022-08-06T05:45:09.529Z,496.90
2022-08-06T05:50:09.833Z,484.50
2022-08-06T05:55:11.356Z,522.10
2022-08-06T06:00:06.456Z,497.00
2022-08-06T06:06:06.970Z,510.30
2022-08-06T06:10:05.816Z,466.90
2022-08-06T06:16:01.654Z,493.60
2022-08-06T06:20:08.247Z,476.40
2022-08-06T06:25:02.479Z,510.90
2022-08-06T06:30:09.167Z,474.10
2022-08-06T06:35:04.489Z,496.00
2022-08-06T06:40:02.156Z,507.50
2022-08-06T06:45:04.029Z,480.40
2022-08-06T06:50:03.958Z,510.00
2022-08-06T06:55:00.409Z,507.30
2022-08-06T07:00:04.157Z,537.40
2022-08-06T07:04:59.324Z,529.20
2022-08-06T07:09:59.877Z,536.70
2022-08-06T07:15:00.734Z,531.20
2022-08-06T07:19:54.324Z,552.40
2022-08-06T07:24:56.991Z,572.40
2022-08-06T07:30:00.332Z,555.30
2022-08-06T07:34:53.160Z,554.60
2022-08-06T07:39:51.120Z,542.70
2022-08-06T07:44:55.831Z,567.80
2022-08-06T07:50:00.224Z,558.30
2022-08-06T07:54:49.665Z,539.60
2022-08-06T07:59:53.498Z,522.40
2022-08-06T08:04:51.657Z,535.50
2022-08-06T08:10:02.080Z,557.00
2022-08-06T08:14:47.419Z,559.60
2022-08-06T08:19:44.782Z,587.10
2022-08-06T08:24:53.978Z,550.60
2022-08-06T08:29:51.436Z,612.80
2022-08-06T08:34:43.468Z,595.60
2022-08-06T08:39:42.778Z,597.60
2022-08-06T08:44:41.014Z,596.60
2022-08-06T08:49:46.790Z,606.80
2022-08-06T08:54:40.546Z,575.30
2022-08-06T08:59:59.437Z,595.60
2022-08-06T09:04:39.004Z,636.20
2022-08-06T09:09:37.311Z,619.40
2022-08-06T09:14:36.506Z,598.40
2022-08-06T09:19:37.175Z,610.40
2022-08-06T09:24:35.636Z,601.20
2022-08-06T09:29:35.509Z,586.90
2022-08-06T09:34:39.324Z,627.10
2022-08-06T09:39:46.665Z,651.80
2022-08-06T09:44:37.232Z,653.80
2022-08-06T09:49:45.694Z,659.70
2022-08-06T09:54:32.263Z,655.40
2022-08-06T09:59:33.390Z,635.40
2022-08-06T10:04:35.932Z,656.40
2022-08-06T10:09:41.400Z,651.80
2022-08-06T10:14:29.255Z,668.30
2022-08-06T10:19:26.341Z,659.60
2022-08-06T10:24:42.290Z,636.50
2022-08-06T10:29:25.710Z,641.10
2022-08-06T10:34:23.966Z,646.30
2022-08-06T10:40:07.599Z,648.50
2022-08-06T10:44:28.523Z,647.70
2022-08-06T10:50:30.211Z,653.60
2022-08-06T10:54:22.487Z,636.50
2022-08-06T10:59:25.794Z,647.60
2022-08-06T11:04:20.039Z,623.70
2022-08-06T11:09:17.406Z,653.00
2022-08-06T11:14:19.707Z,664.50
2022-08-06T11:19:16.991Z,652.30
2022-08-06T11:24:17.198Z,654.20
2022-08-06T11:29:15.734Z,644.80
2022-08-06T11:34:14.608Z,665.80
2022-08-06T11:39:17.722Z,653.40
2022-08-06T11:44:17.060Z,642.90
2022-08-06T11:49:12.344Z,670.50
2022-08-06T11:54:12.547Z,652.70
2022-08-06T11:59:12.868Z,625.70
2022-08-06T12:04:11.091Z,646.80
2022-08-06T12:09:13.155Z,662.50
2022-08-06T12:14:32.881Z,637.00
2022-08-06T12:19:08.748Z,638.90
2022-08-06T12:24:06.896Z,616.90
2022-08-06T12:29:06.164Z,636.00
2022-08-06T12:34:05.451Z,633.80
2022-08-06T12:39:04.898Z,656.60
2022-08-06T12:44:05.093Z,638.70
2022-08-06T12:49:03.698Z,649.00
2022-08-06T12:54:02.512Z,636.30
2022-08-06T12:59:01.786Z,635.90
2022-08-06T13:04:06.736Z,641.10
2022-08-06T13:09:01.162Z,641.00
2022-08-06T13:14:13.860Z,632.10
2022-08-06T13:18:59.465Z,640.20
2022-08-06T13:23:57.620Z,653.30
2022-08-06T13:30:34.615Z,633.20
2022-08-06T13:34:04.812Z,639.70
2022-08-06T13:38:56.311Z,633.90
2022-08-06T13:43:55.782Z,628.60
2022-08-06T13:48:54.907Z,626.40
2022-08-06T13:53:53.222Z,647.80
2022-08-06T13:58:52.383Z,653.10
2022-08-06T14:03:51.748Z,612.70
2022-08-06T14:08:51.952Z,609.50
2022-08-06T14:13:51.247Z,643.50
2022-08-06T14:19:03.560Z,653.70
2022-08-06T14:24:00.234Z,657.00
2022-08-06T14:28:54.611Z,631.90
2022-08-06T14:33:59.462Z,676.90
2022-08-06T14:38:47.295Z,658.30
2022-08-06T14:43:55.852Z,649.00
2022-08-06T14:48:44.708Z,661.60
2022-08-06T14:53:45.057Z,642.10
2022-08-06T14:58:44.270Z,648.50
2022-08-06T15:03:43.640Z,631.20
2022-08-06T15:08:48.506Z,638.60
2022-08-06T15:13:40.985Z,643.00
2022-08-06T15:19:09.997Z,635.50
2022-08-06T15:23:52.764Z,626.10
2022-08-06T15:28:38.779Z,605.10
2022-08-06T15:33:38.985Z,646.00
2022-08-06T15:38:37.595Z,625.70
2022-08-06T15:43:43.824Z,628.20
2022-08-06T15:48:35.650Z,633.50
2022-08-06T15:53:36.731Z,646.20
2022-08-06T15:58:35.050Z,633.00
2022-08-06T16:03:33.326Z,631.40
2022-08-06T16:08:41.289Z,632.90
2022-08-06T16:13:32.721Z,624.70
2022-08-06T16:18:32.264Z,648.50
2022-08-06T16:23:57.069Z,662.00
2022-08-06T16:28:33.776Z,649.40
2022-08-06T16:33:30.633Z,655.00
2022-08-06T16:38:31.394Z,636.40
2022-08-06T16:43:27.139Z,638.50
2022-08-06T16:48:28.114Z,641.30
2022-08-06T16:54:08.383Z,673.20
2022-08-06T16:58:34.277Z,641.40
2022-08-06T17:03:43.006Z,621.50
2022-08-06T17:08:24.569Z,632.60
2022-08-06T17:13:38.454Z,627.40
2022-08-06T17:18:28.646Z,637.40
2022-08-06T17:23:22.278Z,639.40
2022-08-06T17:28:24.752Z,616.20
2022-08-06T17:33:23.021Z,627.00
2022-08-06T17:38:18.986Z,644.80
2022-08-06T17:43:22.412Z,634.20
2022-08-06T17:48:24.560Z,630.10
2022-08-06T17:53:18.950Z,609.10
2022-08-06T17:58:38.488Z,620.30
2022-08-06T18:03:23.784Z,630.60
2022-08-06T18:08:35.688Z,625.30
2022-08-06T18:13:14.739Z,640.00
2022-08-06T18:18:15.410Z,625.70
2022-08-06T18:23:20.108Z,615.20
2022-08-06T18:28:12.561Z,630.60
2022-08-06T18:33:12.682Z,627.50
2022-08-06T18:38:11.127Z,636.20
2022-08-06T18:43:11.389Z,660.40
2022-08-06T18:48:08.466Z,637.50
2022-08-06T18:53:08.694Z,624.60
2022-08-06T18:58:13.514Z,645.40
2022-08-06T19:03:11.164Z,630.40
2022-08-06T19:08:05.798Z,623.90
2022-08-06T19:13:08.462Z,637.40
2022-08-06T19:18:13.737Z,649.90
2022-08-06T19:23:06.493Z,625.80
2022-08-06T19:28:07.181Z,645.70
2022-08-06T19:33:15.730Z,621.30
2022-08-06T19:38:01.290Z,671.10
2022-08-06T19:44:26.722Z,666.80
2022-08-06T19:47:59.604Z,665.10
2022-08-06T19:52:59.881Z,656.80
2022-08-06T19:57:59.156Z,648.60
2022-08-06T20:03:00.403Z,643.90
2022-08-06T20:08:32.431Z,634.90
2022-08-06T20:12:57.308Z,645.50
2022-08-06T20:17:55.368Z,637.30
2022-08-06T20:22:56.421Z,637.20
2022-08-06T20:29:08.030Z,637.60
2022-08-06T20:32:54.823Z,637.80
2022-08-06T20:37:54.741Z,634.30
2022-08-06T20:42:51.543Z,629.50
2022-08-06T20:47:50.746Z,636.90
2022-08-06T20:52:49.937Z,613.00
2022-08-06T20:57:53.129Z,640.80
2022-08-06T21:03:02.959Z,623.20
2022-08-06T21:07:56.879Z,628.30
2022-08-06T21:12:58.683Z,630.30
2022-08-06T21:17:47.078Z,642.80
2022-08-06T21:22:45.343Z,617.20
2022-08-06T21:27:44.515Z,615.30
2022-08-06T21:32:43.721Z,638.10
2022-08-06T21:38:00.432Z,621.70
2022-08-06T21:42:42.077Z,621.70
2022-08-06T21:47:47.191Z,606.20
2022-08-06T21:52:41.549Z,610.00
2022-08-06T21:57:47.512Z,607.50
2022-08-06T22:02:39.142Z,590.20
2022-08-06T22:08:05.707Z,577.50
2022-08-06T22:13:15.315Z,599.30
2022-08-06T22:18:01.799Z,599.00
2022-08-06T22:22:36.067Z,613.90
2022-08-06T22:27:41.607Z,597.00
2022-08-06T22:32:35.981Z,615.00
2022-08-06T22:38:15.154Z,610.00
2022-08-06T22:42:56.462Z,604.20
2022-08-06T22:47:36.680Z,638.40
2022-08-06T22:52:58.920Z,614.70
2022-08-06T22:57:37.290Z,608.70
2022-08-06T23:02:31.124Z,612.10
2022-08-06T23:07:43.210Z,607.20
2022-08-06T23:12:31.566Z,619.10
2022-08-06T23:17:40.091Z,625.70
2022-08-06T23:22:29.143Z,602.10
2022-08-06T23:27:26.243Z,624.30
2022-08-06T23:32:30.261Z,616.90
2022-08-06T23:37:26.552Z,602.90
2022-08-06T23:42:24.929Z,623.80
2022-08-06T23:47:53.221Z,620.00
2022-08-06T23:52:23.935Z,615.70
2022-08-06T23:57:32.684Z,616.40
